Time;durP1;ratioP1;P1;durP2;ratioP2;P2;SDS_P1;SDS_P2;PMS_P1;PMS_P2;Temp;Humidity;BMP_temperature;BMP_pressure;BME280_temperature;BME280_humidity;BME280_pressure;Samples;Min_cycle;Max_cycle;Signal;HPM_P1;HPM_P2
2022/06/20 00:00:11;;;;;;;5.35;3.55;;;22.50;75.50;;;;;;5009145;28;20073;-79
2022/06/20 00:02:43;;;;;;;5.00;3.60;;;22.50;76.40;;;;;;4997332;28;20042;-79
2022/06/20 00:05:17;;;;;;;8.13;3.60;;;22.40;75.80;;;;;;5014298;28;20057;-79
2022/06/20 00:07:43;;;;;;;6.65;3.20;;;22.40;76.10;;;;;;5025503;28;20039;-79
2022/06/20 00:10:15;;;;;;;5.53;3.90;;;22.40;76.20;;;;;;4998584;28;20042;-79
2022/06/20 00:12:42;;;;;;;8.20;4.25;;;22.40;76.30;;;;;;5011487;28;20045;-79
2022/06/20 00:15:19;;;;;;;7.18;3.83;;;22.30;76.30;;;;;;5002881;28;20030;-78
2022/06/20 00:17:45;;;;;;;7.35;4.05;;;22.30;76.40;;;;;;5017814;28;20030;-79
2022/06/20 00:20:12;;;;;;;9.48;4.25;;;22.30;76.40;;;;;;5003596;28;20036;-79
2022/06/20 00:22:37;;;;;;;5.55;3.20;;;22.20;76.50;;;;;;5012277;28;20034;-79
2022/06/20 00:25:03;;;;;;;8.02;4.13;;;22.20;76.60;;;;;;5017544;28;20381;-78
2022/06/20 00:27:29;;;;;;;8.65;3.67;;;22.20;76.60;;;;;;4992978;28;20034;-79
2022/06/20 00:29:55;;;;;;;6.88;4.18;;;22.10;76.70;;;;;;5016144;28;20038;-79
2022/06/20 00:32:20;;;;;;;8.05;3.90;;;22.10;76.80;;;;;;4996974;28;20038;-79
2022/06/20 00:34:46;;;;;;;7.53;4.22;;;22.10;76.90;;;;;;5009366;28;20030;-79
2022/06/20 00:37:18;;;;;;;5.47;3.80;;;22.00;76.90;;;;;;4982075;28;20034;-78
2022/06/20 00:39:45;;;;;;;8.02;4.38;;;22.00;77.10;;;;;;4999581;28;20033;-79
2022/06/20 00:42:11;;;;;;;11.23;4.05;;;21.90;77.20;;;;;;5025273;28;20033;-79
2022/06/20 00:44:48;;;;;;;6.68;3.35;;;21.90;77.50;;;;;;4994272;28;20034;-79
2022/06/20 00:47:18;;;;;;;6.57;3.47;;;21.90;77.50;;;;;;5033868;28;20037;-79
2022/06/20 00:49:58;;;;;;;7.75;3.90;;;21.90;77.70;;;;;;4997280;28;20038;-79
2022/06/20 00:52:51;;;;;;;8.07;4.10;;;21.90;77.80;;;;;;5008482;28;20452;-78
2022/06/20 00:55:24;;;;;;;7.05;4.00;;;21.80;77.90;;;;;;5009409;28;20392;-79
2022/06/20 00:58:20;;;;;;;13.90;4.20;;;21.80;78.20;;;;;;5018765;28;20120;-79
2022/06/20 01:00:46;;;;;;;6.90;3.63;;;21.70;78.30;;;;;;5005799;28;20030;-78
2022/06/20 01:03:21;;;;;;;8.00;4.00;;;21.60;78.40;;;;;;5015256;28;20680;-78
2022/06/20 01:06:02;;;;;;;5.70;3.75;;;21.60;78.60;;;;;;4996836;28;21086;-79
2022/06/20 01:08:32;;;;;;;6.78;3.92;;;21.60;78.60;;;;;;4994690;28;20100;-79
2022/06/20 01:11:03;;;;;;;7.53;3.83;;;21.50;78.70;;;;;;5010735;28;20029;-79
2022/06/20 01:13:29;;;;;;;8.68;3.72;;;21.50;78.80;;;;;;5037937;28;20500;-79
2022/06/20 01:16:00;;;;;;;7.32;3.75;;;21.50;78.90;;;;;;5030548;28;20018;-79
2022/06/20 01:18:30;;;;;;;5.25;3.78;;;21.50;78.80;;;;;;5001765;28;20030;-78
2022/06/20 01:20:58;;;;;;;6.68;3.40;;;21.50;78.80;;;;;;5022281;28;20503;-79
2022/06/20 01:23:54;;;;;;;10.63;4.18;;;21.60;78.80;;;;;;5019358;28;20038;-78
2022/06/20 01:26:38;;;;;;;6.80;3.55;;;21.50;78.80;;;;;;5009847;28;20041;-78
2022/06/20 01:29:07;;;;;;;8.20;3.80;;;21.50;78.90;;;;;;5004752;28;20044;-79
2022/06/20 01:31:43;;;;;;;5.93;4.13;;;21.50;79.00;;;;;;5012912;28;20120;-79
2022/06/20 01:34:13;;;;;;;5.32;3.55;;;21.40;79.10;;;;;;5010858;28;20029;-78
2022/06/20 01:39:25;;;;;;;4.20;3.38;;;21.40;79.50;;;;;;5006571;28;20057;-79
2022/06/20 01:44:41;;;;;;;6.38;3.47;;;21.30;79.80;;;;;;5004410;28;20104;-79
2022/06/20 01:47:07;;;;;;;4.68;3.60;;;21.30;79.90;;;;;;5010910;28;20069;-80
2022/06/20 01:49:35;;;;;;;5.72;3.55;;;21.20;80.20;;;;;;4997368;28;20034;-81
2022/06/20 01:52:07;;;;;;;8.88;3.33;;;21.20;80.40;;;;;;5003372;28;20239;-81
2022/06/20 01:54:37;;;;;;;6.40;3.92;;;21.20;80.40;;;;;;5015285;28;20033;-80
2022/06/20 01:57:07;;;;;;;6.72;3.60;;;21.10;80.40;;;;;;4996982;28;20037;-80
2022/06/20 01:59:43;;;;;;;6.63;3.70;;;21.10;80.40;;;;;;5016930;28;20037;-80
2022/06/20 02:02:10;;;;;;;8.80;3.85;;;21.10;80.70;;;;;;5010681;28;20066;-81
2022/06/20 02:04:37;;;;;;;4.45;3.40;;;21.00;80.70;;;;;;4998816;28;20053;-81
2022/06/20 02:07:08;;;;;;;5.93;3.80;;;21.00;80.90;;;;;;5010487;28;20125;-81
2022/06/20 02:09:35;;;;;;;6.60;3.42;;;21.00;81.10;;;;;;5005968;28;20467;-81
2022/06/20 02:12:02;;;;;;;5.20;3.47;;;21.00;81.20;;;;;;5005509;28;20040;-80
2022/06/20 02:14:41;;;;;;;4.38;3.35;;;20.90;81.20;;;;;;5016836;28;20485;-80
2022/06/20 02:17:19;;;;;;;7.00;3.40;;;20.90;81.10;;;;;;5005142;28;20034;-79
2022/06/20 02:19:52;;;;;;;8.88;3.67;;;20.90;81.20;;;;;;5000037;28;20026;-80
2022/06/20 02:22:20;;;;;;;8.35;3.90;;;20.90;81.40;;;;;;5007225;28;20034;-80
2022/06/20 02:24:50;;;;;;;6.18;3.58;;;20.90;81.50;;;;;;5010653;28;20556;-80
2022/06/20 02:27:50;;;;;;;6.82;3.60;;;20.90;81.50;;;;;;5011276;28;20551;-80
2022/06/20 02:30:15;;;;;;;5.03;3.40;;;20.90;81.70;;;;;;5005354;28;20386;-80
2022/06/20 02:32:46;;;;;;;5.82;3.40;;;20.80;82.00;;;;;;5010777;28;20049;-80
2022/06/20 02:35:15;;;;;;;6.63;3.67;;;20.80;82.00;;;;;;5007714;28;20033;-81
2022/06/20 02:37:42;;;;;;;7.25;4.28;;;20.80;82.10;;;;;;5028127;28;20453;-81
2022/06/20 02:40:11;;;;;;;6.78;3.75;;;20.80;82.20;;;;;;5006047;28;20096;-81
2022/06/20 02:42:56;;;;;;;5.45;3.90;;;20.70;82.20;;;;;;5010579;28;20096;-81
2022/06/20 02:45:23;;;;;;;7.32;3.90;;;20.70;82.30;;;;;;5017396;28;20042;-81
2022/06/20 02:47:51;;;;;;;5.90;3.78;;;20.70;82.60;;;;;;5016770;28;20057;-79
2022/06/20 02:50:26;;;;;;;5.72;3.88;;;20.60;82.90;;;;;;5003623;28;20464;-79
2022/06/20 02:53:16;;;;;;;6.30;3.75;;;20.60;83.10;;;;;;5010232;28;20029;-79
2022/06/20 02:55:42;;;;;;;8.75;4.20;;;20.60;83.20;;;;;;5008987;28;20404;-80
2022/06/20 02:58:20;;;;;;;5.85;3.90;;;20.50;83.60;;;;;;4986297;28;20057;-79
2022/06/20 03:01:13;;;;;;;14.02;3.88;;;20.50;83.80;;;;;;5021010;28;20021;-79
2022/06/20 03:03:43;;;;;;;5.53;3.70;;;20.40;84.10;;;;;;5005734;28;20038;-79
2022/06/20 03:06:15;;;;;;;8.00;4.00;;;20.40;84.20;;;;;;5009002;28;20437;-79
2022/06/20 03:08:41;;;;;;;5.55;4.13;;;20.50;84.40;;;;;;5011262;28;20045;-79
2022/06/20 03:11:09;;;;;;;7.38;3.67;;;20.40;84.40;;;;;;5027416;28;20105;-79
2022/06/20 03:13:38;;;;;;;5.78;3.80;;;20.40;85.00;;;;;;5007806;28;20038;-79
2022/06/20 03:16:06;;;;;;;6.80;4.28;;;20.40;85.00;;;;;;5007611;28;20026;-79
2022/06/20 03:18:38;;;;;;;7.53;3.65;;;20.40;85.00;;;;;;5017338;28;20030;-79
2022/06/20 03:21:05;;;;;;;6.30;4.22;;;20.50;85.10;;;;;;5015223;28;20024;-79
2022/06/20 03:23:33;;;;;;;7.50;4.45;;;20.50;85.20;;;;;;5013880;28;20046;-79
2022/06/20 03:26:03;;;;;;;7.72;4.03;;;20.50;85.30;;;;;;5017861;28;20052;-79
2022/06/20 03:28:31;;;;;;;7.13;3.90;;;20.50;85.50;;;;;;5010526;28;20041;-79
2022/06/20 03:30:59;;;;;;;6.57;4.03;;;20.50;85.50;;;;;;5006593;28;20383;-79
2022/06/20 03:33:25;;;;;;;7.78;3.85;;;20.50;85.70;;;;;;5009996;28;20065;-79
2022/06/20 03:35:55;;;;;;;6.53;4.28;;;20.50;85.60;;;;;;5014930;28;20022;-79
2022/06/20 03:38:22;;;;;;;5.03;4.07;;;20.50;86.30;;;;;;5015311;28;20026;-79
2022/06/20 03:40:48;;;;;;;4.28;3.78;;;20.50;86.20;;;;;;5017080;28;20025;-79
2022/06/20 03:43:18;;;;;;;6.00;4.00;;;20.40;86.10;;;;;;5019992;28;20049;-79
2022/06/20 03:45:48;;;;;;;5.07;3.53;;;20.40;85.90;;;;;;5016776;28;20496;-79
2022/06/20 03:48:18;;;;;;;5.70;3.97;;;20.40;86.80;;;;;;5005771;28;20515;-79
2022/06/20 03:51:05;;;;;;;6.95;4.03;;;20.40;86.40;;;;;;5006313;28;20037;-79
2022/06/20 03:53:43;;;;;;;6.50;4.60;;;20.40;86.60;;;;;;5009891;28;20042;-79
2022/06/20 03:56:38;;;;;;;7.18;4.30;;;20.40;86.70;;;;;;5013670;28;20396;-79
2022/06/20 03:59:14;;;;;;;7.07;4.05;;;20.30;87.20;;;;;;5006305;28;20087;-79
2022/06/20 04:01:59;;;;;;;6.35;3.72;;;20.30;87.70;;;;;;5017299;28;20034;-79
2022/06/20 04:04:35;;;;;;;7.47;4.40;;;20.40;88.30;;;;;;5007365;28;20469;-79
2022/06/20 04:07:05;;;;;;;7.07;4.35;;;20.40;87.50;;;;;;5006502;28;20038;-79
2022/06/20 04:12:37;;;;;;;6.78;4.00;;;20.50;88.20;;;;;;5013637;28;20038;-79
2022/06/20 04:15:14;;;;;;;9.25;4.38;;;20.60;88.50;;;;;;5006221;28;20381;-81
2022/06/20 04:20:51;;;;;;;6.53;4.05;;;20.70;88.60;;;;;;5010682;28;20044;-79
2022/06/20 04:23:31;;;;;;;6.15;4.05;;;20.80;88.90;;;;;;5018053;28;20045;-81
2022/06/20 04:26:04;;;;;;;6.65;3.95;;;20.80;89.60;;;;;;5010152;28;20473;-81
2022/06/20 04:28:39;;;;;;;8.32;4.32;;;20.80;89.00;;;;;;5007709;28;20030;-78
2022/06/20 04:31:12;;;;;;;7.30;4.15;;;20.70;90.30;;;;;;5001947;28;20030;-81
2022/06/20 04:33:51;;;;;;;7.72;4.60;;;20.60;91.20;;;;;;5020608;28;20026;-80
2022/06/20 04:36:26;;;;;;;6.82;4.15;;;20.50;91.30;;;;;;5011784;28;20022;-82
2022/06/20 04:39:23;;;;;;;6.50;4.67;;;20.50;91.80;;;;;;5011954;28;20080;-82
2022/06/20 04:42:04;;;;;;;13.00;6.10;;;20.40;92.40;;;;;;5010644;28;20508;-81
2022/06/20 04:44:37;;;;;;;9.25;4.82;;;20.30;92.70;;;;;;4980252;28;20058;-81
2022/06/20 04:47:16;;;;;;;10.73;4.57;;;20.20;93.20;;;;;;5002455;28;20037;-81
2022/06/20 04:49:42;;;;;;;6.88;4.53;;;20.30;93.40;;;;;;5014606;28;20582;-81
2022/06/20 04:52:14;;;;;;;5.85;4.80;;;20.30;93.20;;;;;;4988227;28;20041;-81
2022/06/20 04:54:40;;;;;;;10.57;5.18;;;20.30;93.60;;;;;;5010805;28;20101;-81
2022/06/20 04:57:09;;;;;;;6.85;4.60;;;20.30;94.20;;;;;;5014169;28;20703;-81
2022/06/20 04:59:34;;;;;;;13.00;4.38;;;20.40;94.20;;;;;;5003199;28;20038;-82
2022/06/20 05:02:04;;;;;;;8.68;4.70;;;20.40;94.30;;;;;;5022607;28;20037;-81
2022/06/20 05:04:37;;;;;;;7.57;4.40;;;20.50;94.10;;;;;;5012511;28;20102;-80
2022/06/20 05:07:12;;;;;;;8.73;4.72;;;20.60;93.30;;;;;;5034431;28;20021;-79
2022/06/20 05:09:49;;;;;;;7.90;5.18;;;20.80;93.20;;;;;;5005581;28;20058;-79
2022/06/20 05:12:22;;;;;;;7.88;4.70;;;20.90;93.80;;;;;;4998825;28;20045;-81
2022/06/20 05:15:02;;;;;;;5.88;4.30;;;21.00;93.60;;;;;;4989367;28;20121;-80
2022/06/20 05:17:31;;;;;;;10.75;4.20;;;21.00;93.60;;;;;;5009207;28;20041;-80
2022/06/20 05:20:07;;;;;;;6.93;4.43;;;21.10;92.80;;;;;;5003928;28;20030;-82
2022/06/20 05:22:41;;;;;;;8.93;4.68;;;21.10;92.60;;;;;;5008646;28;20301;-79
2022/06/20 05:25:14;;;;;;;4.82;4.07;;;21.20;92.40;;;;;;5008323;28;20034;-81
2022/06/20 05:27:48;;;;;;;9.88;4.63;;;21.10;92.50;;;;;;5011951;28;20486;-81
2022/06/20 05:30:22;;;;;;;7.47;4.40;;;21.00;92.20;;;;;;4999820;28;20026;-81
2022/06/20 05:32:59;;;;;;;6.60;4.30;;;21.00;92.10;;;;;;4981743;28;20129;-81
2022/06/20 05:35:37;;;;;;;6.20;3.95;;;21.00;92.10;;;;;;5019459;28;20022;-81
2022/06/20 05:38:27;;;;;;;5.85;4.57;;;20.90;92.00;;;;;;4982576;28;20110;-80
2022/06/20 05:40:58;;;;;;;5.53;4.00;;;20.80;91.90;;;;;;4999924;28;20036;-80
2022/06/20 05:43:27;;;;;;;8.20;4.28;;;20.80;92.70;;;;;;5015743;28;20034;-81
2022/06/20 05:45:57;;;;;;;6.25;4.05;;;20.80;92.40;;;;;;5023064;28;20621;-80
2022/06/20 05:48:40;;;;;;;5.32;4.35;;;20.80;92.20;;;;;;5015648;28;20058;-81
2022/06/20 05:51:08;;;;;;;6.93;3.88;;;20.90;92.50;;;;;;5011961;28;20088;-81
2022/06/20 05:53:39;;;;;;;5.82;3.70;;;20.90;92.60;;;;;;5008102;28;20041;-81
2022/06/20 05:56:14;;;;;;;5.60;3.97;;;20.90;92.50;;;;;;5025645;28;20185;-79
2022/06/20 05:58:42;;;;;;;;;;;21.00;92.00;;;;;;5018565;28;20032;-82
2022/06/20 06:01:14;;;;;;;6.82;3.97;;;21.20;91.70;;;;;;5009110;28;20376;-80
2022/06/20 06:03:51;;;;;;;3.85;3.20;;;21.40;91.30;;;;;;5040041;28;20044;-80
2022/06/20 06:06:22;;;;;;;6.53;3.67;;;21.60;90.90;;;;;;5023331;28;20048;-81
2022/06/20 06:09:00;;;;;;;4.63;3.42;;;21.90;90.00;;;;;;5010532;28;20069;-81
2022/06/20 06:11:32;;;;;;;8.20;3.65;;;22.20;88.10;;;;;;5016928;28;20037;-79
2022/06/20 06:14:08;;;;;;;5.38;3.95;;;22.50;86.60;;;;;;5034761;28;20033;-78
2022/06/20 06:16:50;;;;;;;5.45;3.92;;;22.80;84.80;;;;;;5018762;28;20033;-78
2022/06/20 06:19:28;;;;;;;8.48;3.95;;;23.00;83.20;;;;;;5009000;28;20062;-78
2022/06/20 06:21:56;;;;;;;4.20;3.80;;;23.00;82.50;;;;;;5012272;28;20033;-80
2022/06/20 06:24:25;;;;;;;5.80;3.85;;;22.90;82.90;;;;;;4993121;28;20046;-78
2022/06/20 06:26:56;;;;;;;6.88;3.42;;;22.80;84.20;;;;;;5025491;28;20029;-79
2022/06/20 06:29:34;;;;;;;8.15;4.25;;;22.60;84.70;;;;;;5014879;28;20484;-79
2022/06/20 06:32:11;;;;;;;6.05;3.78;;;22.50;83.90;;;;;;5015322;28;20512;-78
2022/06/20 06:34:46;;;;;;;7.13;4.10;;;22.30;83.50;;;;;;4982413;28;20491;-77
2022/06/20 06:37:19;;;;;;;7.70;3.47;;;22.20;84.50;;;;;;5014590;28;20492;-78
2022/06/20 06:40:03;;;;;;;9.45;4.10;;;22.10;85.40;;;;;;5012243;28;20111;-78
2022/06/20 06:42:29;;;;;;;9.75;4.25;;;22.10;86.10;;;;;;5024098;28;20116;-78
2022/06/20 06:44:57;;;;;;;6.85;4.22;;;22.10;86.80;;;;;;5012092;28;20115;-78
2022/06/20 06:47:39;;;;;;;5.57;4.50;;;22.10;87.20;;;;;;5028292;28;20037;-78
2022/06/20 06:50:36;;;;;;;9.57;4.75;;;22.20;86.00;;;;;;5023437;28;20095;-78
2022/06/20 06:53:11;;;;;;;;;;;22.30;84.80;;;;;;5008077;28;20494;-77
2022/06/20 06:55:41;;;;;;;7.65;4.50;;;22.40;85.60;;;;;;4993824;28;19909;-78
2022/06/20 06:58:22;;;;;;;5.63;4.75;;;22.50;85.30;;;;;;4994127;28;20037;-78
2022/06/20 07:01:31;;;;;;;7.18;4.00;;;22.50;85.70;;;;;;5005233;28;20022;-78
2022/06/20 07:04:20;;;;;;;5.85;3.70;;;22.50;86.20;;;;;;5029102;28;20493;-78
2022/06/20 07:07:11;;;;;;;7.00;4.28;;;22.40;86.10;;;;;;5009010;28;20083;-78
2022/06/20 07:09:45;;;;;;;9.73;4.53;;;22.30;85.70;;;;;;5016150;28;20042;-78
2022/06/20 07:12:40;;;;;;;7.68;4.28;;;22.10;85.90;;;;;;5030353;28;20051;-80
2022/06/20 07:15:15;;;;;;;5.78;4.63;;;22.00;87.40;;;;;;5004710;28;20030;-79
2022/06/20 07:17:47;;;;;;;8.15;5.38;;;21.90;87.10;;;;;;4994372;28;20042;-80
2022/06/20 07:20:14;;;;;;;7.97;5.07;;;21.80;87.70;;;;;;4995825;28;20038;-78
2022/06/20 07:22:42;;;;;;;5.22;4.47;;;21.60;88.90;;;;;;5024936;28;20087;-78
2022/06/20 07:25:34;;;;;;;9.93;5.50;;;21.50;89.50;;;;;;5009270;28;20056;-80
2022/06/20 07:28:45;;;;;;;9.55;5.10;;;21.50;90.00;;;;;;5008525;28;20761;-79
2022/06/20 07:31:34;;;;;;;9.15;5.38;;;21.50;89.90;;;;;;5013327;28;20560;-79
2022/06/20 07:34:23;;;;;;;7.03;4.93;;;21.60;90.50;;;;;;5009241;28;20042;-78
2022/06/20 07:36:57;;;;;;;11.10;5.05;;;21.50;90.60;;;;;;5000604;28;20386;-78
2022/06/20 07:39:45;;;;;;;6.90;5.13;;;21.50;90.30;;;;;;5003255;28;20034;-77
2022/06/20 07:42:25;;;;;;;8.93;4.93;;;21.60;90.40;;;;;;5005953;28;20042;-79
2022/06/20 07:45:22;;;;;;;10.43;5.22;;;21.70;90.20;;;;;;4991676;28;20033;-78
2022/06/20 07:47:55;;;;;;;7.43;4.75;;;21.70;89.70;;;;;;5010494;28;20033;-77
2022/06/20 07:50:46;;;;;;;10.18;5.40;;;21.70;90.00;;;;;;5014168;28;20072;-78
2022/06/20 07:53:21;;;;;;;8.90;6.28;;;21.90;90.10;;;;;;5010883;28;20386;-78
2022/06/20 07:55:52;;;;;;;10.93;5.57;;;22.00;90.40;;;;;;5005541;28;20034;-78
2022/06/20 07:58:26;;;;;;;10.48;5.63;;;22.20;90.20;;;;;;5008752;28;20042;-80
2022/06/20 08:00:53;;;;;;;8.17;5.07;;;22.40;90.40;;;;;;5014722;28;20472;-78
2022/06/20 08:03:28;;;;;;;8.48;5.05;;;22.80;87.80;;;;;;5012864;28;20285;-79
2022/06/20 08:06:10;;;;;;;;;;;23.00;86.70;;;;;;5013322;28;20030;-79
2022/06/20 08:09:14;;;;;;;8.20;4.82;;;23.10;87.60;;;;;;4999826;28;20000;-78
2022/06/20 08:12:01;;;;;;;9.40;5.38;;;23.10;88.30;;;;;;4977806;28;20496;-79
2022/06/20 08:14:46;;;;;;;7.80;4.55;;;23.00;87.70;;;;;;4968578;28;20034;-78
2022/06/20 08:17:12;;;;;;;9.68;6.03;;;23.10;88.60;;;;;;5012917;28;20053;-79
2022/06/20 08:19:41;;;;;;;7.95;5.70;;;23.20;89.20;;;;;;5010138;28;20030;-78
2022/06/20 08:22:17;;;;;;;9.32;5.65;;;23.30;88.80;;;;;;5013343;28;20175;-79
2022/06/20 08:24:46;;;;;;;8.95;5.05;;;23.40;86.50;;;;;;5023744;28;20058;-79
2022/06/20 08:27:33;;;;;;;12.10;5.93;;;23.50;84.90;;;;;;5012306;28;20064;-79
2022/06/20 08:30:09;;;;;;;9.18;5.75;;;23.60;84.60;;;;;;5009412;28;20041;-78
2022/06/20 08:33:05;;;;;;;11.77;6.13;;;23.80;86.80;;;;;;5015313;28;20037;-78
2022/06/20 08:36:11;;;;;;;9.50;5.97;;;24.10;84.00;;;;;;5006817;28;20526;-78
2022/06/20 08:38:43;;;;;;;11.38;6.32;;;24.30;81.70;;;;;;4975684;28;20417;-80
2022/06/20 08:41:09;;;;;;;11.52;5.68;;;24.40;81.60;;;;;;5013302;28;20018;-79
2022/06/20 08:44:02;;;;;;;10.07;6.50;;;24.40;80.90;;;;;;5012180;28;20037;-81
2022/06/20 08:46:57;;;;;;;11.48;5.63;;;24.40;81.30;;;;;;5016553;28;20038;-80
2022/06/20 08:49:38;;;;;;;11.35;6.05;;;24.40;80.90;;;;;;5006418;28;20417;-81
2022/06/20 08:52:40;;;;;;;15.65;7.15;;;24.50;80.30;;;;;;5016055;28;20055;-79
2022/06/20 08:55:33;;;;;;;9.52;6.72;;;24.50;79.60;;;;;;5004060;28;20026;-80
2022/06/20 08:58:11;;;;;;;11.30;6.32;;;24.20;81.20;;;;;;5004873;28;20030;-79
2022/06/20 09:00:46;;;;;;;14.25;6.13;;;24.30;81.80;;;;;;5018250;28;20441;-81
2022/06/20 09:03:37;;;;;;;10.48;6.50;;;24.40;84.60;;;;;;5026291;28;20034;-80
2022/06/20 09:06:12;;;;;;;9.38;6.30;;;24.70;84.20;;;;;;5009260;28;20022;-81
2022/06/20 09:09:07;;;;;;;9.27;5.38;;;25.30;81.10;;;;;;5001232;28;20088;-80
2022/06/20 09:11:52;;;;;;;12.10;7.05;;;25.90;79.60;;;;;;5019476;28;20038;-80
2022/06/20 09:14:31;;;;;;;11.32;5.35;;;25.90;75.20;;;;;;5047478;28;20100;-79
2022/06/20 09:17:22;;;;;;;12.43;6.13;;;25.90;77.70;;;;;;5020715;28;20038;-79
2022/06/20 09:19:53;;;;;;;7.15;5.07;;;25.90;81.10;;;;;;5045067;28;20033;-79
2022/06/20 09:22:50;;;;;;;8.02;5.35;;;26.10;79.90;;;;;;5005273;28;20037;-79
2022/06/20 09:25:44;;;;;;;12.10;5.28;;;26.30;78.60;;;;;;5009146;28;20040;-79
2022/06/20 09:28:44;;;;;;;8.73;4.90;;;26.50;80.70;;;;;;5016446;28;20121;-78
2022/06/20 09:31:30;;;;;;;7.63;4.90;;;26.70;79.10;;;;;;5009488;28;20057;-79
2022/06/20 09:34:17;;;;;;;11.57;5.07;;;26.90;78.10;;;;;;5031208;28;20030;-80
2022/06/20 09:37:10;;;;;;;9.43;5.35;;;26.90;76.60;;;;;;5021568;28;20029;-79
2022/06/20 09:40:24;;;;;;;8.25;6.07;;;27.00;74.40;;;;;;5016516;28;20034;-79
2022/06/20 09:43:23;;;;;;;10.02;4.15;;;27.00;72.70;;;;;;5012448;28;20038;-79
2022/06/20 09:45:59;;;;;;;8.38;4.43;;;26.90;76.90;;;;;;5012172;28;20030;-79
2022/06/20 09:48:51;;;;;;;7.70;4.82;;;27.00;75.30;;;;;;5031937;28;20121;-80
2022/06/20 09:51:41;;;;;;;6.45;4.50;;;27.10;73.50;;;;;;5027153;28;20030;-79
2022/06/20 09:54:29;;;;;;;10.43;4.43;;;27.10;73.90;;;;;;5016326;28;20317;-79
2022/06/20 09:57:07;;;;;;;6.80;4.22;;;27.10;72.90;;;;;;5017532;28;20032;-79
2022/06/20 09:59:54;;;;;;;8.50;4.28;;;27.10;73.10;;;;;;5013492;28;20030;-80
2022/06/20 10:02:32;;;;;;;6.07;3.53;;;27.10;73.50;;;;;;5013486;28;20096;-78
2022/06/20 10:05:10;;;;;;;6.65;4.20;;;27.20;71.20;;;;;;5007144;28;20033;-78
2022/06/20 10:07:52;;;;;;;7.57;3.33;;;27.10;70.80;;;;;;5008138;28;20022;-78
2022/06/20 10:10:30;;;;;;;8.25;4.22;;;27.20;72.00;;;;;;4995737;28;20033;-79
2022/06/20 10:13:32;;;;;;;5.63;3.45;;;27.40;73.50;;;;;;5018385;28;20032;-79
2022/06/20 10:16:15;;;;;;;8.90;3.00;;;27.50;70.60;;;;;;5006488;28;20393;-79
2022/06/20 10:19:12;;;;;;;5.35;3.15;;;27.70;69.80;;;;;;4994865;28;20033;-79
2022/06/20 10:22:14;;;;;;;4.38;2.78;;;27.70;69.30;;;;;;4998791;28;20030;-79
2022/06/20 10:25:07;;;;;;;6.53;2.65;;;27.60;67.40;;;;;;5009754;28;20090;-79
2022/06/20 10:27:45;;;;;;;3.85;2.75;;;27.60;68.00;;;;;;4995725;28;20156;-78
2022/06/20 10:30:13;;;;;;;5.68;2.67;;;27.70;68.20;;;;;;4999634;28;20033;-79
2022/06/20 10:32:42;;;;;;;4.85;2.40;;;27.70;64.10;;;;;;4994747;28;20057;-78
2022/06/20 10:35:29;;;;;;;4.35;2.30;;;27.70;65.70;;;;;;5010809;28;20026;-79
2022/06/20 10:38:21;;;;;;;3.72;2.15;;;27.70;65.20;;;;;;5018643;28;20061;-78
2022/06/20 10:41:07;;;;;;;4.18;2.35;;;27.70;66.20;;;;;;5000903;28;20066;-78
2022/06/20 10:43:44;;;;;;;;;;;27.70;64.90;;;;;;5000016;28;20397;-78
2022/06/20 10:46:25;;;;;;;4.25;2.45;;;27.70;65.30;;;;;;5013176;28;19909;-78
2022/06/20 10:49:09;;;;;;;5.38;2.28;;;27.90;63.90;;;;;;4996921;28;20567;-78
2022/06/20 10:51:35;;;;;;;5.07;2.67;;;27.90;63.40;;;;;;5018848;28;20033;-78
2022/06/20 10:54:37;;;;;;;4.10;1.95;;;28.00;63.40;;;;;;5014540;28;20396;-78
2022/06/20 10:57:12;;;;;;;3.45;2.20;;;28.20;63.80;;;;;;5004212;28;20030;-78
2022/06/20 11:00:05;;;;;;;2.90;1.90;;;28.20;61.20;;;;;;4992865;28;20061;-78
2022/06/20 11:02:40;;;;;;;4.72;2.25;;;28.30;62.30;;;;;;5008454;28;20046;-78
2022/06/20 11:05:18;;;;;;;2.50;2.00;;;28.30;61.00;;;;;;5006928;28;20034;-77
2022/06/20 11:08:29;;;;;;;4.45;2.42;;;28.30;61.10;;;;;;5006635;28;20030;-78
2022/06/20 11:11:07;;;;;;;5.38;2.38;;;28.30;63.30;;;;;;5002450;28;20101;-78
2022/06/20 11:13:45;;;;;;;2.78;2.00;;;28.40;64.50;;;;;;4994208;28;20030;-78
2022/06/20 11:16:19;;;;;;;3.63;1.90;;;28.50;64.90;;;;;;5030880;28;20026;-78
2022/06/20 11:18:52;;;;;;;4.32;2.78;;;28.60;63.60;;;;;;4996676;28;20034;-79
2022/06/20 11:21:44;;;;;;;2.22;1.75;;;28.70;62.90;;;;;;5001393;28;20027;-78
2022/06/20 11:24:38;;;;;;;5.40;2.33;;;28.80;62.00;;;;;;5008613;28;20034;-78
2022/06/20 11:27:41;;;;;;;2.63;1.75;;;28.80;61.10;;;;;;5018663;28;20119;-78
2022/06/20 11:30:14;;;;;;;4.40;1.90;;;28.70;59.70;;;;;;4999745;28;20061;-78
2022/06/20 11:33:09;;;;;;;3.65;1.92;;;28.60;60.00;;;;;;5007465;28;20501;-78
2022/06/20 11:35:42;;;;;;;3.10;2.17;;;28.40;60.60;;;;;;5002979;28;20030;-78
2022/06/20 11:38:20;;;;;;;2.83;1.80;;;28.20;61.20;;;;;;5007462;28;20513;-77
2022/06/20 11:41:00;;;;;;;3.30;1.67;;;27.90;61.20;;;;;;4986935;28;20026;-78
2022/06/20 11:43:35;;;;;;;7.10;1.90;;;27.80;62.70;;;;;;4993770;28;20043;-77
2022/06/20 11:46:04;;;;;;;2.90;1.20;;;27.70;62.80;;;;;;5006872;28;20041;-77
2022/06/20 11:49:00;;;;;;;3.05;1.50;;;27.50;63.10;;;;;;4992585;28;20030;-78
2022/06/20 11:51:47;;;;;;;2.40;1.60;;;27.20;62.70;;;;;;5005788;28;20034;-77
2022/06/20 11:54:16;;;;;;;4.72;1.50;;;26.80;63.70;;;;;;5001965;28;20113;-78
2022/06/20 11:57:15;;;;;;;1.95;1.45;;;26.50;64.70;;;;;;5022948;28;20494;-78
2022/06/20 11:59:59;;;;;;;2.65;1.30;;;26.20;66.10;;;;;;4977657;28;20393;-78
2022/06/20 12:02:49;;;;;;;1.63;1.23;;;26.00;66.60;;;;;;5017213;28;20045;-77
2022/06/20 12:05:17;;;;;;;3.00;1.13;;;25.80;67.90;;;;;;5029305;28;20084;-78
2022/06/20 12:08:08;;;;;;;1.98;1.20;;;25.90;68.10;;;;;;5015585;28;20030;-78
2022/06/20 12:10:46;;;;;;;2.85;1.02;;;25.90;68.30;;;;;;5016747;28;20362;-78
2022/06/20 12:13:51;;;;;;;3.75;1.58;;;25.70;68.50;;;;;;5001300;28;20042;-78
2022/06/20 12:16:25;;;;;;;1.50;1.33;;;25.60;68.60;;;;;;5006303;28;20040;-79
2022/06/20 12:24:55;;;;;;;3.00;1.70;;;25.20;69.80;;;;;;4995391;28;20042;-79
2022/06/20 12:27:21;;;;;;;2.72;1.55;;;25.00;70.30;;;;;;5003106;28;20421;-77
2022/06/20 12:29:48;;;;;;;3.22;1.40;;;24.80;70.90;;;;;;4989353;28;20034;-78
2022/06/20 12:32:18;;;;;;;8.50;1.70;;;24.70;71.20;;;;;;5002161;28;20125;-78
2022/06/20 12:35:11;;;;;;;4.28;1.55;;;24.50;71.40;;;;;;5010832;28;20036;-78
2022/06/20 12:37:46;;;;;;;7.43;1.77;;;24.20;72.00;;;;;;5005998;28;20495;-78
2022/06/20 12:40:18;;;;;;;;;;;24.10;72.20;;;;;;5010457;28;20080;-78
2022/06/20 12:43:09;;;;;;;1.95;1.13;;;23.90;72.60;;;;;;5010588;28;19936;-78
2022/06/20 12:46:13;;;;;;;2.72;1.20;;;23.80;73.50;;;;;;5024010;28;20112;-80
2022/06/20 12:48:44;;;;;;;2.67;1.40;;;23.60;73.90;;;;;;5005742;28;20068;-78
2022/06/20 12:51:19;;;;;;;3.10;1.45;;;23.50;75.10;;;;;;5010570;28;20034;-78
2022/06/20 12:54:10;;;;;;;4.57;1.83;;;23.50;75.20;;;;;;5009036;28;20117;-78
2022/06/20 12:56:56;;;;;;;2.70;1.80;;;23.50;75.60;;;;;;5014065;28;20562;-79
2022/06/20 12:59:48;;;;;;;2.75;1.48;;;23.30;76.80;;;;;;5014487;28;20030;-78
2022/06/20 13:02:37;;;;;;;1.85;1.40;;;23.20;77.10;;;;;;5006206;28;20117;-79
2022/06/20 13:05:40;;;;;;;1.83;1.40;;;23.10;78.20;;;;;;5008568;28;20233;-78
2022/06/20 13:08:17;;;;;;;2.42;1.70;;;23.00;78.20;;;;;;5003733;28;20411;-78
2022/06/20 13:11:02;;;;;;;1.92;1.63;;;23.00;78.10;;;;;;5016712;28;20033;-78
2022/06/20 13:13:37;;;;;;;1.50;1.35;;;23.00;78.10;;;;;;4992195;28;20063;-79
2022/06/20 13:16:40;;;;;;;5.03;2.05;;;23.00;78.20;;;;;;4996025;28;20033;-78
2022/06/20 13:19:31;;;;;;;5.10;1.95;;;22.90;78.50;;;;;;4996920;28;20026;-78
2022/06/20 13:22:16;;;;;;;6.00;2.05;;;22.80;78.00;;;;;;5011492;28;20030;-79
2022/06/20 13:24:49;;;;;;;4.30;1.95;;;22.70;79.20;;;;;;5011534;28;20038;-79
2022/06/20 13:27:40;;;;;;;2.90;1.80;;;22.60;79.20;;;;;;5010126;28;20133;-78
2022/06/20 13:30:27;;;;;;;4.43;2.35;;;22.70;79.10;;;;;;4998265;28;20030;-77
2022/06/20 13:33:09;;;;;;;2.58;2.00;;;22.70;79.00;;;;;;5001022;28;20030;-79
2022/06/20 13:35:52;;;;;;;2.95;1.83;;;22.70;79.40;;;;;;5011443;28;20112;-78
2022/06/20 13:39:03;;;;;;;5.75;2.30;;;22.80;79.10;;;;;;5005047;28;20022;-78
2022/06/20 13:41:44;;;;;;;2.08;1.98;;;22.90;79.20;;;;;;5008791;28;20037;-78
2022/06/20 13:44:16;;;;;;;4.43;1.95;;;22.90;77.10;;;;;;4994707;28;20440;-78
2022/06/20 13:46:50;;;;;;;3.60;2.28;;;22.80;77.70;;;;;;4998095;28;20141;-79
2022/06/20 13:49:40;;;;;;;1.80;1.60;;;22.60;77.90;;;;;;5001652;28;20026;-79
2022/06/20 13:52:34;;;;;;;2.00;1.80;;;22.60;77.40;;;;;;5012610;28;20041;-79
2022/06/20 13:55:16;;;;;;;2.55;1.98;;;22.50;77.90;;;;;;5000304;28;20026;-78
2022/06/20 13:57:49;;;;;;;2.50;1.55;;;22.50;78.90;;;;;;5004437;28;20026;-78
2022/06/20 14:00:26;;;;;;;2.83;1.60;;;22.50;78.70;;;;;;5003054;28;20473;-78
2022/06/20 14:03:18;;;;;;;3.92;2.47;;;22.50;77.60;;;;;;4993113;28;20038;-77